createdAt,value
2022-09-04T00:02:41.656Z,95767.56
2022-09-04T00:08:34.986Z,95777.13
2022-09-04T00:11:13.741Z,95780.97
2022-09-04T00:14:00.081Z,95779.05
2022-09-04T00:16:43.361Z,95783.08
2022-09-04T00:19:39.605Z,95785.53
2022-09-04T00:22:36.329Z,95781.89
2022-09-04T00:25:25.074Z,95780.91
2022-09-04T00:28:08.762Z,95780.14
2022-09-04T00:30:44.890Z,95777.48
2022-09-04T00:33:36.580Z,95783.80
2022-09-04T00:36:07.839Z,95791.30
2022-09-04T00:38:55.090Z,95790.70
2022-09-04T00:41:44.019Z,95789.91
2022-09-04T00:44:44.958Z,95790.81
2022-09-04T00:57:44.114Z,95787.15
2022-09-04T01:00:23.699Z,95774.09
2022-09-04T01:03:04.402Z,95780.44
2022-09-04T01:06:04.498Z,95773.13
2022-09-04T01:08:56.690Z,95775.97
2022-09-04T01:11:48.550Z,95773.87
2022-09-04T01:14:29.933Z,95780.36
2022-09-04T01:17:26.190Z,95777.13
2022-09-04T01:20:19.067Z,95777.67
2022-09-04T01:22:53.921Z,95786.45
2022-09-04T01:25:48.454Z,95796.06
2022-09-04T01:28:41.435Z,95789.88
2022-09-04T01:31:32.664Z,95785.30
2022-09-04T01:34:28.586Z,95779.17
2022-09-04T01:37:35.361Z,95774.58
2022-09-04T01:40:35.169Z,95768.98
2022-09-04T01:43:06.020Z,95768.64
2022-09-04T01:46:11.433Z,95766.14
2022-09-04T01:48:52.410Z,95764.83
2022-09-04T01:51:43.158Z,95758.06
2022-09-04T01:54:26.462Z,95761.13
2022-09-04T01:57:08.979Z,95767.07
2022-09-04T02:00:00.903Z,95768.06
2022-09-04T02:03:06.280Z,95767.42
2022-09-04T02:05:48.663Z,95763.02
2022-09-04T02:08:20.672Z,95761.86
2022-09-04T02:11:12.993Z,95758.61
2022-09-04T02:14:03.488Z,95759.95
2022-09-04T02:16:44.086Z,95762.59
2022-09-04T02:19:25.017Z,95756.44
2022-09-04T02:22:12.800Z,95758.88
2022-09-04T02:25:03.958Z,95761.94
2022-09-04T02:28:06.363Z,95762.83
2022-09-04T02:30:44.389Z,95754.40
2022-09-04T02:33:28.848Z,95753.63
2022-09-04T02:36:16.436Z,95742.72
2022-09-04T02:39:05.965Z,95743.29
2022-09-04T02:41:51.247Z,95740.95
2022-09-04T02:44:33.532Z,95745.02
2022-09-04T02:47:07.994Z,95747.89
2022-09-04T02:49:47.055Z,95759.00
2022-09-04T02:52:44.941Z,95762.05
2022-09-04T02:55:34.440Z,95757.57
2022-09-04T02:58:40.533Z,95762.55
2022-09-04T03:01:32.466Z,95764.42
2022-09-04T03:07:39.783Z,95768.34
2022-09-04T03:10:23.469Z,95780.09
2022-09-04T03:13:04.300Z,95783.12
2022-09-04T03:15:56.140Z,95779.00
2022-09-04T03:18:32.383Z,95780.20
2022-09-04T03:21:09.359Z,95776.84
2022-09-04T03:24:07.174Z,95779.44
2022-09-04T03:26:43.765Z,95779.14
2022-09-04T03:29:33.471Z,95766.13
2022-09-04T03:32:16.032Z,95766.81
2022-09-04T03:35:13.754Z,95770.87
2022-09-04T03:38:17.392Z,95778.50
2022-09-04T03:40:55.586Z,95777.50
2022-09-04T03:43:39.007Z,95781.44
2022-09-04T03:46:16.447Z,95782.98
2022-09-04T03:49:12.407Z,95778.53
2022-09-04T03:52:07.363Z,95783.58
2022-09-04T03:55:00.064Z,95801.72
2022-09-04T03:57:52.964Z,95809.37
2022-09-04T04:00:23.947Z,95798.91
2022-09-04T04:03:11.436Z,95807.34
2022-09-04T04:05:48.843Z,95808.23
2022-09-04T04:08:38.577Z,95814.70
2022-09-04T04:11:45.536Z,95816.27
2022-09-04T04:14:22.949Z,95826.13
2022-09-04T04:17:12.452Z,95838.92
2022-09-04T04:20:05.915Z,95843.86
2022-09-04T04:23:05.006Z,95840.98
2022-09-04T04:26:01.265Z,95850.91
2022-09-04T04:29:08.816Z,95850.91
2022-09-04T04:32:08.583Z,95854.25
2022-09-04T04:34:54.038Z,95856.84
2022-09-04T04:37:56.488Z,95858.50
2022-09-04T04:40:32.706Z,95868.73
2022-09-04T04:43:04.686Z,95873.34
2022-09-04T04:45:59.333Z,95872.19
2022-09-04T04:48:53.425Z,95865.29
2022-09-04T04:51:35.454Z,95857.86
2022-09-04T04:54:37.636Z,95869.02
2022-09-04T04:57:10.716Z,95872.47
2022-09-04T04:59:56.082Z,95873.80
2022-09-04T05:02:33.591Z,95879.48
2022-09-04T05:05:14.565Z,95876.52
2022-09-04T05:07:48.976Z,95880.38
2022-09-04T05:10:34.251Z,95876.02
2022-09-04T05:13:16.548Z,95873.70
2022-09-04T05:16:07.496Z,95866.20
2022-09-04T05:18:30.492Z,95864.69
2022-09-04T05:21:06.791Z,95867.94
2022-09-04T05:23:47.097Z,95863.75
2022-09-04T05:26:39.602Z,95869.13
2022-09-04T05:29:22.863Z,95873.34
2022-09-04T05:32:09.384Z,95888.67
2022-09-04T05:34:58.447Z,95889.71
2022-09-04T05:38:08.862Z,95882.20
2022-09-04T05:40:52.757Z,95888.39
2022-09-04T05:43:42.157Z,95883.95
2022-09-04T05:46:45.880Z,95892.78
2022-09-04T05:49:49.922Z,95899.90
2022-09-04T05:52:49.110Z,95890.96
2022-09-04T05:55:26.922Z,95891.52
2022-09-04T05:58:44.365Z,95884.91
2022-09-04T06:01:52.472Z,95879.16
2022-09-04T06:04:38.447Z,95876.17
2022-09-04T06:10:40.534Z,95858.48
2022-09-04T06:13:15.044Z,95851.96
2022-09-04T06:16:19.377Z,95865.66
2022-09-04T06:19:06.371Z,95865.34
2022-09-04T06:21:50.394Z,95865.58
2022-09-04T06:24:37.207Z,95871.14
2022-09-04T06:27:26.498Z,95869.51
2022-09-04T06:30:11.643Z,95867.83
2022-09-04T06:32:49.443Z,95865.70
2022-09-04T06:35:40.290Z,95861.80
2022-09-04T06:38:43.200Z,95862.13
2022-09-04T06:41:32.126Z,95864.29
2022-09-04T06:44:36.109Z,95868.02
2022-09-04T06:47:42.856Z,95873.62
2022-09-04T06:50:34.032Z,95867.33
2022-09-04T06:53:20.144Z,95857.09
2022-09-04T06:56:08.595Z,95864.96
2022-09-04T06:59:14.177Z,95871.47
2022-09-04T07:02:08.804Z,95869.73
2022-09-04T07:04:48.289Z,95863.33
2022-09-04T07:07:22.566Z,95857.98
2022-09-04T07:10:05.145Z,95866.59
2022-09-04T07:12:51.609Z,95858.22
2022-09-04T07:15:43.159Z,95854.47
2022-09-04T07:18:40.360Z,95854.75
2022-09-04T07:21:30.408Z,95861.69
2022-09-04T07:24:10.577Z,95868.59
2022-09-04T07:27:06.514Z,95875.31
2022-09-04T07:29:38.594Z,95866.97
2022-09-04T07:32:18.732Z,95858.16
2022-09-04T07:35:33.916Z,95853.17
2022-09-04T07:44:51.070Z,95867.81
2022-09-04T07:47:26.941Z,95879.39
2022-09-04T07:53:35.813Z,95890.11
2022-09-04T07:56:35.922Z,95886.12
2022-09-04T07:59:20.684Z,95889.50
2022-09-04T08:02:09.932Z,95888.53
2022-09-04T08:04:59.574Z,95883.63
2022-09-04T08:07:44.639Z,95884.33
2022-09-04T08:10:33.859Z,95887.58
2022-09-04T08:13:23.351Z,95893.27
2022-09-04T08:15:56.222Z,95900.28
2022-09-04T08:18:43.719Z,95903.22
2022-09-04T08:21:30.766Z,95902.44
2022-09-04T08:24:13.554Z,95892.22
2022-09-04T08:30:24.907Z,95903.27
2022-09-04T08:33:37.034Z,95895.95
2022-09-04T08:36:30.794Z,95896.17
2022-09-04T08:39:23.094Z,95886.27
2022-09-04T08:42:15.412Z,95887.08
2022-09-04T08:45:20.751Z,95885.92
2022-09-04T08:48:22.635Z,95888.39
2022-09-04T08:51:21.083Z,95885.99
2022-09-04T08:54:07.688Z,95881.37
2022-09-04T08:56:55.629Z,95875.44
2022-09-04T08:59:51.438Z,95868.94
2022-09-04T09:02:32.166Z,95863.84
2022-09-04T09:05:30.096Z,95873.97
2022-09-04T09:08:13.704Z,95870.39
2022-09-04T09:18:40.943Z,95868.53
2022-09-04T09:21:18.984Z,95868.36
2022-09-04T09:24:06.577Z,95868.34
2022-09-04T09:44:01.881Z,95848.44
2022-09-04T10:04:22.244Z,95819.38
2022-09-04T10:21:05.126Z,95815.80
2022-09-04T10:24:22.882Z,95813.93
2022-09-04T10:37:00.110Z,95798.12
2022-09-04T10:40:08.074Z,95801.39
2022-09-04T10:43:42.446Z,95800.17
2022-09-04T10:46:24.941Z,95788.66
2022-09-04T10:49:08.493Z,95791.09
2022-09-04T10:54:58.686Z,95777.50
2022-09-04T10:59:18.657Z,95772.34
2022-09-04T11:01:03.481Z,95779.13
2022-09-04T11:04:01.343Z,95770.37
2022-09-04T11:07:05.308Z,95769.67
2022-09-04T11:24:36.740Z,95755.08
2022-09-04T11:30:29.654Z,95754.11
2022-09-04T11:33:58.073Z,95746.23
2022-09-04T11:37:06.243Z,95753.09
2022-09-04T11:40:24.709Z,95757.19
2022-09-04T11:48:08.448Z,95745.44
2022-09-04T11:50:48.690Z,95674.89
2022-09-04T12:00:36.286Z,95731.17
2022-09-04T12:04:07.324Z,95729.02
2022-09-04T12:06:28.140Z,95726.35
2022-09-04T12:22:03.434Z,95707.02
2022-09-04T12:28:53.423Z,95705.52
2022-09-04T12:39:02.390Z,95702.64
2022-09-04T12:41:58.405Z,95638.65
2022-09-04T12:44:42.645Z,95701.09
2022-09-04T12:47:33.577Z,95702.46
2022-09-04T12:50:13.524Z,95704.91
2022-09-04T12:53:04.940Z,95697.19
2022-09-04T12:55:57.748Z,95699.28
2022-09-04T13:11:47.526Z,95687.58
2022-09-04T13:17:55.758Z,95681.70
2022-09-04T13:20:54.330Z,95688.97
2022-09-04T13:23:46.593Z,95688.70
2022-09-04T13:26:33.929Z,95690.52
2022-09-04T13:29:08.624Z,95695.20
2022-09-04T13:32:16.329Z,95706.28
2022-09-04T13:35:00.407Z,95702.00
2022-09-04T13:37:54.503Z,95698.51
2022-09-04T13:40:46.101Z,95699.41
2022-09-04T13:43:23.796Z,95701.07
2022-09-04T13:45:59.638Z,95691.27
2022-09-04T13:48:33.814Z,95692.42
2022-09-04T13:51:07.302Z,95696.66
2022-09-04T13:54:00.073Z,95700.65
2022-09-04T13:56:37.239Z,95698.62
2022-09-04T13:59:12.076Z,95696.49
2022-09-04T14:01:46.561Z,95700.73
2022-09-04T14:07:56.448Z,95704.96
2022-09-04T14:13:53.773Z,95689.77
2022-09-04T14:27:08.166Z,95689.26
2022-09-04T14:30:01.070Z,95704.22
2022-09-04T14:32:34.665Z,95714.31
2022-09-04T14:35:30.808Z,95710.24
2022-09-04T14:38:41.991Z,95717.50
2022-09-04T14:41:43.846Z,95717.97
2022-09-04T14:44:20.734Z,95723.91
2022-09-04T14:47:12.174Z,95707.27
2022-09-04T14:49:48.749Z,95710.65
2022-09-04T14:52:24.094Z,95704.27
2022-09-04T14:54:57.405Z,95695.85
2022-09-04T14:57:46.429Z,95701.95
2022-09-04T15:00:26.336Z,95704.96
2022-09-04T15:03:19.025Z,95700.62
2022-09-04T15:05:59.566Z,95696.42
2022-09-04T15:08:40.161Z,95703.55
2022-09-04T15:11:09.431Z,95706.05
2022-09-04T15:13:56.794Z,95711.75
2022-09-04T15:16:31.656Z,95723.75
2022-09-04T15:19:40.381Z,95720.11
2022-09-04T15:22:28.539Z,95731.32
2022-09-04T15:25:08.908Z,95727.63
2022-09-04T15:28:06.943Z,95736.35
2022-09-04T15:30:43.703Z,95732.28
2022-09-04T15:33:17.378Z,95735.70
2022-09-04T15:36:13.830Z,95738.70
2022-09-04T15:38:51.016Z,95738.92
2022-09-04T15:41:50.727Z,95729.31
2022-09-04T15:44:34.317Z,95748.72
2022-09-04T15:47:17.423Z,95744.06
2022-09-04T15:50:04.592Z,95745.47
2022-09-04T15:53:00.392Z,95758.81
2022-09-04T15:55:43.695Z,95755.13
2022-09-04T15:58:41.164Z,95748.70
2022-09-04T16:01:17.112Z,95742.62
2022-09-04T16:04:07.402Z,95745.08
2022-09-04T16:06:58.551Z,95754.17
2022-09-04T16:16:04.705Z,95773.17
2022-09-04T16:18:36.459Z,95773.84
2022-09-04T16:21:15.739Z,95774.37
2022-09-04T16:23:47.065Z,95771.52
2022-09-04T16:26:23.050Z,95774.36
2022-09-04T16:28:56.436Z,95778.23
2022-09-04T16:31:31.348Z,95784.48
2022-09-04T16:34:03.202Z,95789.28
2022-09-04T16:36:51.284Z,95788.34
2022-09-04T16:39:22.993Z,95751.45
2022-09-04T16:41:54.663Z,95792.64
2022-09-04T16:44:52.932Z,95803.40
2022-09-04T16:47:35.242Z,95808.47
2022-09-04T16:50:45.078Z,95808.61
2022-09-04T16:53:18.494Z,95815.11
2022-09-04T16:56:08.568Z,95820.30
2022-09-04T16:58:50.367Z,95816.47
2022-09-04T17:01:43.465Z,95816.60
2022-09-04T17:29:18.801Z,95848.16
2022-09-04T18:50:32.157Z,95909.39
2022-09-04T19:53:34.662Z,95920.05
2022-09-04T19:55:03.003Z,95852.98
2022-09-04T20:00:43.890Z,95927.38
2022-09-04T20:14:14.050Z,95922.20
2022-09-04T20:16:48.651Z,95850.87
2022-09-04T20:25:52.408Z,95920.97
2022-09-04T20:28:48.773Z,95925.41
2022-09-04T20:31:36.819Z,95925.04
2022-09-04T20:34:45.593Z,95926.26
2022-09-04T20:40:46.454Z,95923.32
2022-09-04T20:43:47.859Z,95926.34
2022-09-04T20:52:45.878Z,95937.28
2022-09-04T20:52:50.485Z,95932.63
2022-09-04T20:53:04.554Z,95930.61
2022-09-04T21:03:19.858Z,95923.73
2022-09-04T21:04:01.522Z,95930.95
2022-09-04T21:06:57.674Z,95926.86
2022-09-04T21:13:14.202Z,95930.59
2022-09-04T21:15:54.952Z,95929.52
2022-09-04T21:19:28.558Z,95921.08
2022-09-04T21:28:48.615Z,95921.91
2022-09-04T21:31:43.956Z,95919.77
2022-09-04T21:34:37.596Z,95919.35
2022-09-04T21:40:51.074Z,95925.78
2022-09-04T21:43:41.054Z,95928.92
2022-09-04T21:46:29.519Z,95935.33
2022-09-04T23:55:00.027Z,95965.88
